B738 Xiamen Airlines wypadł z pasa podczas lądowania w Manili (film)

Wypadk B738 Xiamen w Manilii

16 sierpnia, B738 należący do Xiamen Airlines (znaki rejestracyjne B-5498), który wykonywał lot MF-8667 z Xiamen (Chiny) do Manili (Filipiny) ze 157 pasażerami i 8 załogami, w powodu warunków atmosferycznych przerwał pierwsze podejście do pasa 24 i odszedł na drugi krąg.

Podczas drugiego podejścia o godzinie 15.55 UTC, samolot zjechał na lewo od pasa startowego na nieutwardzoną nawierzchnię, w wyniku czego złożyła się lewa goleń podwozia głównego, a lewy silnik oderwał się od skrzydła.

Pasażerowie opuścili pokład korzystając z trapów awaryjnych. Nikomu nic się nie stało, jednak sama konstrukcja została w znaczącym stopniu uszkodzona. Aktualnie trwa dochodzenie mające wyjaśnić przyczyny zdarzenia.

NOTAM:
B3806/18 NOTAMN
Q) RPHI/QMRLC/IV/NBO/A /000/999/1431N12101E005
A) RPLL B) 1808161945 C) 1808170400
E) RWY06/24 CLSD DUE DISABLED ACFT.

Metary:
RPLL 161800Z 00000KT 5000 -RA BKN020 OVC080 24/24 Q1005 NOSIG RMK A2968=
RPLL 161739Z 15003KT 120V200 2500 RA BKN020 OVC080 24/24 Q1005 TEMPO 5000 RMK A2968=
RPLL 161700Z VRB01KT 4500 -RA FEW018CB BKN020 OVC080 24/24 Q1006 TEMPO 7000 -TSRA RMK A2971=
RPLL 161619Z 26007KT 6000 -RA BKN020 OVC080 24/24 Q1006 NOSIG RMK A2971=
RPLL 161600Z 28011KT 250V310 2000 +TSRA FEW018CB BKN020 OVC080 24/24 Q1007 TEMPO 5000 TSRA RMK A2974 CB OHD=
RPLL 161500Z 25017KT 2500 +TSRA FEW020CB BKN022 OVC080 24/24 Q1007 TEMPO 5000 TSRA 2974 CB OHD=

RPLL 161435Z 27021KT 3000 +RA SCT022 OVC090 25/25 Q1006 TEMPO FM1500 6000 RA RMK A2971=
RPLL 161400Z 22007KT 140V260 7000 -RA SCT022 OVC090 26/26 NOSIG RMK A2971=
RPLL 161325Z 24013KT 8000 -SHRA SCT022 OVC090 26/26 Q1006 TEMPO 7000 RA RMK A2971=
RPLL 161300Z 23007KT 9999 SCT023 BKN100 28/28 Q1006 NOSIG RMK A2971=
RPLL 161200Z 23008KT 9999 SCT023 BKN100 27/27 Q1005 NOSIG RMK A2968=
RPLL 161100Z 24012G23KT 9999 SCT022 SCT100 29/29 Q1005 TEMPO 9000 -SHRA RMK A2968=
RPLL 161000Z 24014KT 9999 FEW025 BKN300 29/28 Q1004 NOSIG RMK A2965=
RPLL 160930Z 23012G24KT 8000 -SHRA SCT018 OVC070 27/26 Q1005 RMK A2968 PLS DISREGARD THIS DATA TNX=
 



Więcej informacji na temat tego zdarzenia dostępnych jest na stronie www.avherald.com

Źródło: avherald
comments powered by Disqus